Time;durP1;ratioP1;P1;durP2;ratioP2;P2;SDS_P1;SDS_P2;PMS_P1;PMS_P2;Temp;Humidity;BMP_temperature;BMP_pressure;BME280_temperature;BME280_humidity;BME280_pressure;Samples;Min_cycle;Max_cycle;Signal;HPM_P1;HPM_P2
2022/08/29 00:02:00;;;;;;;10.82;6.07;;;;;;;21.59;nan;-24417.16;5011851;28;20690;-59
2022/08/29 00:04:25;;;;;;;13.05;6.85;;;;;;;21.46;nan;-24413.44;5012037;28;20560;-59
2022/08/29 00:06:51;;;;;;;10.23;6.35;;;;;;;21.40;nan;-24411.91;5005584;28;20632;-60
2022/08/29 00:09:16;;;;;;;10.80;6.38;;;;;;;21.73;nan;-24420.78;5011636;28;20184;-60
2022/08/29 00:11:42;;;;;;;11.77;6.28;;;;;;;21.39;nan;-24411.63;5005211;28;20191;-60
2022/08/29 00:14:08;;;;;;;9.95;5.97;;;;;;;21.46;nan;-24413.44;4994800;28;20172;-59
2022/08/29 00:16:34;;;;;;;10.75;6.05;;;;;;;21.80;nan;-24422.84;5005128;28;20204;-60
2022/08/29 00:18:59;;;;;;;11.52;6.82;;;;;;;21.38;nan;-24411.22;5004879;28;20237;-60
2022/08/29 00:21:25;;;;;;;9.63;5.68;;;;;;;21.75;nan;-24421.47;5011351;28;20176;-60
2022/08/29 00:23:50;;;;;;;14.38;6.00;;;;;;;21.68;nan;-24419.53;5009493;28;20585;-60
2022/08/29 00:26:16;;;;;;;9.75;6.30;;;;;;;21.32;nan;-24409.53;5003542;28;20207;-61
2022/08/29 00:28:41;;;;;;;11.50;6.18;;;;;;;21.26;nan;-24408.03;5012301;28;20184;-59
2022/08/29 00:31:07;;;;;;;12.38;5.97;;;;;;;21.12;nan;-24404.28;5015061;28;20180;-60
2022/08/29 00:33:32;;;;;;;10.50;6.55;;;;;;;21.38;nan;-24411.22;5003782;28;20196;-60
2022/08/29 00:35:57;;;;;;;15.95;8.10;;;;;;;21.49;nan;-24414.25;5014750;28;20237;-60
2022/08/29 00:38:23;;;;;;;14.18;7.75;;;;;;;21.41;nan;-24412.19;5014925;28;20215;-60
2022/08/29 00:40:52;;;;;;;16.48;7.82;;;;;;;21.03;nan;-24401.78;5015030;28;20172;-60
2022/08/29 00:43:23;;;;;;;14.10;7.53;;;;;;;21.02;nan;-24401.34;5014685;28;20673;-60
2022/08/29 00:46:13;;;;;;;14.15;7.45;;;;;;;21.37;nan;-24411.06;5008753;28;20566;-60
2022/08/29 00:48:40;;;;;;;14.40;8.02;;;;;;;21.30;nan;-24409.00;5002949;28;20189;-60
2022/08/29 00:51:11;;;;;;;17.42;7.70;;;;;;;21.00;nan;-24400.94;5015442;28;20234;-61
2022/08/29 00:53:43;;;;;;;14.95;7.40;;;;;;;21.28;nan;-24408.44;4997235;28;20565;-61
2022/08/29 00:56:13;;;;;;;14.35;7.22;;;;;;;21.58;nan;-24416.75;5015331;28;20219;-61
2022/08/29 00:58:47;;;;;;;13.73;7.45;;;;;;;21.37;nan;-24410.94;5015043;28;20183;-60
2022/08/29 01:01:13;;;;;;;20.35;8.90;;;;;;;21.12;nan;-24404.28;5006118;28;20263;-59
2022/08/29 01:03:39;;;;;;;22.20;11.02;;;;;;;21.29;nan;-24408.72;5006196;28;20184;-60
2022/08/29 01:06:05;;;;;;;26.67;13.52;;;;;;;21.12;nan;-24404.13;4997646;28;20558;-59
2022/08/29 01:08:31;;;;;;;34.28;15.10;;;;;;;21.45;nan;-24413.16;5005605;28;20635;-59
2022/08/29 01:13:44;;;;;;;22.90;11.88;;;;;;;21.59;nan;-24417.03;5014893;28;20253;-60
2022/08/29 01:16:13;;;;;;;11.23;7.55;;;;;;;21.46;nan;-24413.44;5014827;28;20679;-60
2022/08/29 01:18:41;;;;;;;11.23;6.65;;;;;;;21.74;nan;-24421.19;5014289;28;20211;-60
2022/08/29 01:21:33;;;;;;;12.23;5.85;;;;;;;21.75;nan;-24421.31;5014775;28;20180;-59
2022/08/29 01:24:13;;;;;;;14.70;7.80;;;;;;;21.59;nan;-24417.03;5014859;28;20643;-60
2022/08/29 01:26:41;;;;;;;10.70;5.85;;;;;;;21.53;nan;-24415.50;5014647;28;20172;-59
2022/08/29 01:29:07;;;;;;;11.52;6.10;;;;;;;21.46;nan;-24413.56;5014250;28;20275;-60
2022/08/29 01:31:38;;;;;;;11.05;5.50;;;;;;;21.23;nan;-24407.03;5014996;28;20626;-59
2022/08/29 01:34:04;;;;;;;12.00;7.00;;;;;;;21.01;nan;-24401.22;5014376;28;20180;-60
2022/08/29 01:36:46;;;;;;;10.95;6.22;;;;;;;20.80;nan;-24395.41;5014268;28;20254;-59
2022/08/29 01:39:12;;;;;;;13.93;7.43;;;;;;;21.50;nan;-24414.53;5013926;28;20184;-60
2022/08/29 01:41:40;;;;;;;13.27;6.78;;;;;;;21.13;nan;-24404.56;5014269;28;20187;-61
2022/08/29 01:44:12;;;;;;;13.13;7.03;;;;;;;21.19;nan;-24405.94;4996473;28;20172;-61
2022/08/29 01:46:38;;;;;;;12.32;6.53;;;;;;;21.42;nan;-24412.31;5007677;28;20547;-60
2022/08/29 01:49:07;;;;;;;14.32;6.50;;;;;;;21.38;nan;-24411.22;5014270;28;20212;-60
2022/08/29 01:51:33;;;;;;;14.60;7.18;;;;;;;20.98;nan;-24400.38;5013874;28;20182;-59
2022/08/29 01:53:58;;;;;;;12.50;6.75;;;;;;;21.27;nan;-24408.16;5014013;28;20605;-61
2022/08/29 01:56:28;;;;;;;14.38;7.25;;;;;;;21.19;nan;-24405.94;5013866;28;20208;-59
2022/08/29 01:58:55;;;;;;;13.90;6.25;;;;;;;20.90;nan;-24398.16;5013995;28;20623;-60
2022/08/29 02:01:24;;;;;;;11.60;6.50;;;;;;;21.00;nan;-24400.81;5013943;28;20187;-59
2022/08/29 02:03:51;;;;;;;11.57;6.47;;;;;;;21.01;nan;-24401.22;5006096;28;20188;-60
2022/08/29 02:06:17;;;;;;;15.63;7.07;;;;;;;20.80;nan;-24395.25;5009545;28;20183;-60
2022/08/29 02:08:43;;;;;;;11.77;6.38;;;;;;;20.70;nan;-24392.63;5007070;28;20187;-60
2022/08/29 02:11:11;;;;;;;15.10;7.30;;;;;;;20.95;nan;-24399.41;5010983;28;20533;-60
2022/08/29 02:13:44;;;;;;;13.05;7.32;;;;;;;20.62;nan;-24390.41;5010597;28;20271;-61
2022/08/29 02:16:09;;;;;;;12.70;6.03;;;;;;;20.56;nan;-24388.75;5013753;28;20202;-60
2022/08/29 02:18:35;;;;;;;13.77;6.35;;;;;;;20.87;nan;-24397.34;5007294;28;20184;-60
2022/08/29 02:21:01;;;;;;;14.10;6.68;;;;;;;20.69;nan;-24392.47;5013396;28;20180;-60
2022/08/29 02:23:27;;;;;;;14.45;7.13;;;;;;;20.49;nan;-24386.78;5013285;28;20183;-60
2022/08/29 02:25:53;;;;;;;14.05;7.18;;;;;;;20.80;nan;-24395.41;5011787;28;20509;-60
2022/08/29 02:28:19;;;;;;;14.18;7.65;;;;;;;20.72;nan;-24393.31;5008874;28;20322;-60
2022/08/29 02:30:48;;;;;;;17.48;7.63;;;;;;;20.74;nan;-24393.72;5013522;28;20635;-60
2022/08/29 02:33:15;;;;;;;13.90;7.38;;;;;;;20.49;nan;-24386.94;5013107;28;20639;-60
2022/08/29 02:35:42;;;;;;;14.70;7.15;;;;;;;20.69;nan;-24392.47;5011823;28;20287;-60
2022/08/29 02:38:08;;;;;;;12.40;7.22;;;;;;;20.61;nan;-24390.25;5008175;28;20259;-60
2022/08/29 02:40:34;;;;;;;16.35;7.05;;;;;;;20.44;nan;-24385.41;5013145;28;20267;-60
2022/08/29 02:43:00;;;;;;;10.35;6.18;;;;;;;20.70;nan;-24392.63;5013246;28;20174;-60
2022/08/29 02:45:25;;;;;;;15.90;8.10;;;;;;;20.78;nan;-24394.69;5013222;28;20190;-60
2022/08/29 02:47:51;;;;;;;12.90;6.95;;;;;;;20.58;nan;-24389.28;5013422;28;20199;-60
2022/08/29 02:50:17;;;;;;;14.65;7.38;;;;;;;20.75;nan;-24394.00;5012574;28;20635;-60
2022/08/29 02:52:43;;;;;;;13.18;7.32;;;;;;;20.54;nan;-24388.31;5013048;28;20168;-59
2022/08/29 02:55:14;;;;;;;13.27;7.82;;;;;;;20.72;nan;-24393.31;5012871;28;20207;-59
2022/08/29 02:57:40;;;;;;;16.20;8.10;;;;;;;20.75;nan;-24393.88;5013247;28;20152;-60
2022/08/29 03:00:09;;;;;;;14.57;7.07;;;;;;;20.78;nan;-24394.84;5012800;28;20625;-60
2022/08/29 03:02:34;;;;;;;14.30;7.88;;;;;;;20.44;nan;-24385.41;5012575;28;20171;-60
2022/08/29 03:05:00;;;;;;;11.82;6.85;;;;;;;20.67;nan;-24391.78;5006376;28;20184;-61
2022/08/29 03:07:25;;;;;;;12.43;7.15;;;;;;;20.54;nan;-24388.31;5013116;28;20180;-60
2022/08/29 03:09:51;;;;;;;11.70;6.53;;;;;;;20.54;nan;-24388.31;5006488;28;20176;-59
2022/08/29 03:12:17;;;;;;;14.77;7.43;;;;;;;20.16;nan;-24377.91;5006440;28;20212;-59
2022/08/29 03:14:43;;;;;;;13.93;7.57;;;;;;;20.38;nan;-24383.75;5006503;28;20648;-60
2022/08/29 03:17:08;;;;;;;16.75;7.00;;;;;;;20.03;nan;-24374.16;5012560;28;20180;-59
2022/08/29 03:19:34;;;;;;;15.57;7.47;;;;;;;19.92;nan;-24371.22;5012094;28;20231;-59
2022/08/29 03:22:00;;;;;;;12.70;6.70;;;;;;;19.97;nan;-24372.50;5003168;28;20177;-60
2022/08/29 03:24:26;;;;;;;17.45;7.18;;;;;;;20.17;nan;-24378.03;4999040;28;20173;-59
2022/08/29 03:26:52;;;;;;;12.60;6.68;;;;;;;19.82;nan;-24368.59;4997105;28;21235;-60
2022/08/29 03:29:17;;;;;;;11.88;6.90;;;;;;;20.11;nan;-24376.50;4998306;28;20199;-60
2022/08/29 03:31:46;;;;;;;13.00;7.30;;;;;;;20.19;nan;-24378.59;4998579;28;20180;-60
2022/08/29 03:34:13;;;;;;;13.80;6.55;;;;;;;20.09;nan;-24375.81;4997596;28;20173;-59
2022/08/29 03:36:39;;;;;;;16.15;7.25;;;;;;;20.17;nan;-24378.19;4997878;28;20473;-61
2022/08/29 03:39:05;;;;;;;11.40;6.60;;;;;;;20.08;nan;-24375.69;4996877;28;20263;-59
2022/08/29 03:41:30;;;;;;;13.23;6.80;;;;;;;19.93;nan;-24371.50;4997378;28;20311;-60
2022/08/29 03:43:57;;;;;;;10.52;6.45;;;;;;;20.10;nan;-24376.09;4996022;28;20177;-60
2022/08/29 03:46:23;;;;;;;13.85;7.57;;;;;;;20.26;nan;-24380.53;4996735;28;20227;-60
2022/08/29 03:48:49;;;;;;;13.07;6.68;;;;;;;19.95;nan;-24372.06;4997226;28;20655;-59
2022/08/29 03:51:15;;;;;;;12.25;6.85;;;;;;;20.28;nan;-24381.22;4996689;28;20186;-60
2022/08/29 03:53:41;;;;;;;14.93;7.38;;;;;;;20.04;nan;-24374.56;4997786;28;20187;-60
2022/08/29 03:56:06;;;;;;;14.40;7.28;;;;;;;20.23;nan;-24379.72;4997373;28;20207;-60
2022/08/29 03:58:33;;;;;;;13.60;6.95;;;;;;;20.29;nan;-24381.38;4997380;28;20173;-59
2022/08/29 04:00:59;;;;;;;14.07;7.90;;;;;;;20.01;nan;-24373.72;4995234;28;20287;-59
2022/08/29 04:03:25;;;;;;;11.35;6.05;;;;;;;20.08;nan;-24375.69;4997764;28;20172;-58
2022/08/29 04:05:50;;;;;;;23.63;7.55;;;;;;;20.28;nan;-24381.09;4996006;28;20508;-60
2022/08/29 04:08:16;;;;;;;12.20;7.03;;;;;;;20.29;nan;-24381.50;4997019;28;20180;-59
2022/08/29 04:10:41;;;;;;;12.35;7.00;;;;;;;20.34;nan;-24382.63;4998290;28;20727;-59
2022/08/29 04:13:08;;;;;;;12.68;7.05;;;;;;;20.15;nan;-24377.47;4996274;28;20192;-59
2022/08/29 04:15:34;;;;;;;12.98;6.45;;;;;;;20.76;nan;-24394.16;4996975;28;20689;-60
2022/08/29 04:18:01;;;;;;;13.57;6.45;;;;;;;21.08;nan;-24403.16;4996382;28;20222;-60
2022/08/29 04:20:30;;;;;;;12.55;6.75;;;;;;;21.13;nan;-24404.56;4997191;28;20713;-60
2022/08/29 04:22:58;;;;;;;13.48;6.75;;;;;;;21.47;nan;-24413.84;4996958;28;20184;-60
2022/08/29 04:25:26;;;;;;;13.25;7.03;;;;;;;21.12;nan;-24404.28;4997704;28;20234;-60
2022/08/29 04:27:53;;;;;;;17.50;6.90;;;;;;;21.36;nan;-24410.66;4996735;28;20247;-61
2022/08/29 04:30:22;;;;;;;11.45;6.25;;;;;;;21.28;nan;-24408.56;4994938;28;20199;-61
2022/08/29 04:32:48;;;;;;;15.98;8.63;;;;;;;21.80;nan;-24422.84;4997753;28;20180;-61
2022/08/29 04:35:14;;;;;;;14.95;8.75;;;;;;;21.75;nan;-24421.47;4997280;28;20208;-61
2022/08/29 04:37:41;;;;;;;21.77;9.77;;;;;;;22.19;nan;-24433.38;4996736;28;20187;-59
2022/08/29 04:40:10;;;;;;;22.08;10.88;;;;;;;22.18;nan;-24433.09;4997842;28;20650;-62
2022/08/29 04:42:37;;;;;;;49.72;23.30;;;;;;;22.12;nan;-24431.56;4996762;28;20202;-60
2022/08/29 04:45:04;;;;;;;33.10;16.50;;;;;;;22.27;nan;-24435.59;4997690;28;22060;-60
2022/08/29 04:47:30;;;;;;;37.95;17.77;;;;;;;22.08;nan;-24430.47;4996701;28;20195;-60
2022/08/29 04:49:56;;;;;;;38.05;17.08;;;;;;;21.91;nan;-24425.75;4996777;28;20552;-60
2022/08/29 04:52:22;;;;;;;28.42;14.40;;;;;;;21.53;nan;-24415.38;4996697;28;20218;-60
2022/08/29 04:54:48;;;;;;;28.98;14.10;;;;;;;21.70;nan;-24420.06;4998628;28;20175;-60
2022/08/29 04:57:14;;;;;;;27.77;13.82;;;;;;;21.67;nan;-24419.09;4995929;28;20284;-60
2022/08/29 04:59:39;;;;;;;24.30;10.98;;;;;;;21.31;nan;-24409.41;4996409;28;20283;-60
2022/08/29 05:02:05;;;;;;;22.92;11.38;;;;;;;21.44;nan;-24412.88;4997852;28;20173;-60
2022/08/29 05:04:30;;;;;;;19.90;9.40;;;;;;;21.13;nan;-24404.56;4996430;28;20185;-60
2022/08/29 05:06:56;;;;;;;21.95;10.48;;;;;;;21.40;nan;-24411.75;4996474;28;20274;-60
2022/08/29 05:09:21;;;;;;;27.05;11.88;;;;;;;21.28;nan;-24408.44;4996174;28;20191;-60
2022/08/29 05:11:47;;;;;;;25.70;12.05;;;;;;;21.30;nan;-24409.00;4996355;28;20712;-60
2022/08/29 05:14:13;;;;;;;21.92;9.80;;;;;;;21.09;nan;-24403.44;4998962;28;20210;-60
2022/08/29 05:16:38;;;;;;;23.10;10.23;;;;;;;21.47;nan;-24413.69;4999908;28;20642;-61
2022/08/29 05:19:05;;;;;;;15.32;8.38;;;;;;;21.74;nan;-24421.03;4998958;28;20228;-58
2022/08/29 05:21:35;;;;;;;14.32;8.00;;;;;;;22.03;nan;-24429.22;4999994;28;20263;-59
2022/08/29 05:24:04;;;;;;;14.35;7.30;;;;;;;22.30;nan;-24436.41;4998583;28;20323;-61
2022/08/29 05:26:32;;;;;;;14.18;7.18;;;;;;;22.24;nan;-24434.88;5000087;28;20208;-59
2022/08/29 05:28:58;;;;;;;15.43;7.25;;;;;;;22.73;nan;-24448.19;4999819;28;20195;-59
2022/08/29 05:31:24;;;;;;;13.73;7.07;;;;;;;23.13;nan;-24459.09;5000461;28;21254;-59
2022/08/29 05:33:49;;;;;;;15.85;7.95;;;;;;;23.15;nan;-24459.66;4982601;28;20220;-59
2022/08/29 05:36:14;;;;;;;17.13;8.73;;;;;;;23.79;nan;-24477.19;4999996;28;20243;-59
2022/08/29 05:38:40;;;;;;;15.30;8.75;;;;;;;24.13;nan;-24486.44;4999563;28;21822;-59
2022/08/29 05:41:06;;;;;;;23.90;7.93;;;;;;;24.14;nan;-24486.69;4999946;28;20655;-58
2022/08/29 05:43:33;;;;;;;17.08;7.72;;;;;;;24.36;nan;-24492.78;4999502;28;20211;-59
2022/08/29 05:46:03;;;;;;;16.15;8.57;;;;;;;24.94;nan;-24508.63;4999506;28;20191;-59
2022/08/29 05:48:30;;;;;;;14.60;7.88;;;;;;;25.31;nan;-24518.53;4998495;28;20180;-59
2022/08/29 05:50:56;;;;;;;16.15;8.05;;;;;;;25.32;nan;-24518.94;4998808;28;20184;-60
2022/08/29 05:53:21;;;;;;;15.65;7.07;;;;;;;25.23;nan;-24516.34;4999172;28;20265;-59
2022/08/29 05:55:46;;;;;;;13.35;7.00;;;;;;;25.65;nan;-24527.75;5003959;28;20654;-59
2022/08/29 05:58:12;;;;;;;14.75;7.10;;;;;;;25.97;nan;-24536.56;5014017;28;20176;-59
2022/08/29 06:00:40;;;;;;;9.85;5.22;;;;;;;26.03;nan;-24538.19;5001338;28;20669;-59
2022/08/29 06:03:05;;;;;;;12.48;5.18;;;;;;;26.17;nan;-24542.03;5009305;28;20241;-59
2022/08/29 06:05:31;;;;;;;9.13;4.97;;;;;;;26.44;nan;-24549.19;5007377;28;20258;-59
2022/08/29 06:07:56;;;;;;;7.72;5.10;;;;;;;26.06;nan;-24539.03;5013865;28;20646;-59
2022/08/29 06:10:22;;;;;;;9.40;5.22;;;;;;;26.26;nan;-24544.53;5013462;28;20223;-59
2022/08/29 06:12:47;;;;;;;9.88;5.28;;;;;;;26.44;nan;-24549.34;5013842;28;20188;-60
2022/08/29 06:15:13;;;;;;;8.05;5.03;;;;;;;26.66;nan;-24555.22;5013429;28;20196;-60
2022/08/29 06:17:38;;;;;;;7.63;5.13;;;;;;;26.72;nan;-24556.88;5013924;28;20298;-60
2022/08/29 06:20:08;;;;;;;9.77;5.22;;;;;;;26.48;nan;-24550.44;5013330;28;20307;-60
2022/08/29 06:22:35;;;;;;;7.65;4.93;;;;;;;26.71;nan;-24556.59;4958166;28;20275;-60
2022/08/29 06:25:00;;;;;;;7.32;5.40;;;;;;;26.87;nan;-24561.00;5012120;28;20186;-60
2022/08/29 06:27:26;;;;;;;10.90;5.82;;;;;;;27.23;nan;-24570.75;5007014;28;20184;-60
2022/08/29 06:29:51;;;;;;;18.48;6.05;;;;;;;26.99;nan;-24564.16;5013519;28;20184;-59
2022/08/29 06:32:17;;;;;;;11.30;5.88;;;;;;;27.32;nan;-24573.06;5013657;28;20198;-60
2022/08/29 06:34:42;;;;;;;9.23;5.97;;;;;;;27.27;nan;-24571.69;5013360;28;20230;-61
2022/08/29 06:37:08;;;;;;;9.43;5.50;;;;;;;27.60;nan;-24580.88;5013253;28;20180;-60
2022/08/29 06:39:33;;;;;;;9.27;5.40;;;;;;;27.99;nan;-24591.44;5013061;28;20187;-60
2022/08/29 06:41:59;;;;;;;9.85;6.22;;;;;;;28.15;nan;-24595.53;5013050;28;20616;-60
2022/08/29 06:44:25;;;;;;;9.48;5.53;;;;;;;28.47;nan;-24604.28;5013078;28;20182;-61
2022/08/29 06:46:51;;;;;;;8.18;5.35;;;;;;;28.33;nan;-24600.59;5013240;28;20246;-60
2022/08/29 06:49:18;;;;;;;8.40;5.68;;;;;;;28.41;nan;-24602.78;5013164;28;20271;-60
2022/08/29 06:51:48;;;;;;;11.75;5.90;;;;;;;28.61;nan;-24608.13;5013328;28;20212;-61
2022/08/29 06:54:15;;;;;;;9.02;5.32;;;;;;;28.79;nan;-24613.03;5013049;28;20172;-60
2022/08/29 06:56:41;;;;;;;7.07;4.72;;;;;;;29.31;nan;-24627.00;5010906;28;20796;-59
2022/08/29 06:59:07;;;;;;;8.65;5.63;;;;;;;29.21;nan;-24624.25;5008253;28;20184;-59
2022/08/29 07:01:33;;;;;;;13.98;5.50;;;;;;;29.37;nan;-24628.63;5012764;28;20176;-59
2022/08/29 07:03:59;;;;;;;8.20;5.18;;;;;;;29.62;nan;-24635.44;5012960;28;20176;-59
2022/08/29 07:06:26;;;;;;;9.38;5.63;;;;;;;29.43;nan;-24630.25;5012609;28;20183;-59
2022/08/29 07:08:52;;;;;;;9.15;4.70;;;;;;;29.63;nan;-24635.59;5012730;28;20214;-59
2022/08/29 07:11:17;;;;;;;9.73;5.57;;;;;;;29.64;nan;-24636.00;5012510;28;20172;-59
2022/08/29 07:13:43;;;;;;;8.25;5.47;;;;;;;29.46;nan;-24630.94;5012913;28;20168;-61
2022/08/29 07:16:15;;;;;;;7.15;4.97;;;;;;;29.55;nan;-24633.53;5012521;28;20538;-60
2022/08/29 07:18:44;;;;;;;9.38;5.63;;;;;;;29.52;nan;-24632.72;5012188;28;20215;-60
2022/08/29 07:21:12;;;;;;;13.30;4.90;;;;;;;29.52;nan;-24632.72;5012281;28;20226;-60
2022/08/29 07:23:39;;;;;;;8.20;4.72;;;;;;;29.70;nan;-24637.63;5012635;28;20175;-60
2022/08/29 07:26:27;;;;;;;8.63;4.88;;;;;;;29.82;nan;-24640.91;5012753;28;20176;-60
2022/08/29 07:28:55;;;;;;;9.18;5.20;;;;;;;29.57;nan;-24633.94;5012558;28;20186;-60
2022/08/29 07:31:21;;;;;;;10.80;5.70;;;;;;;29.43;nan;-24630.25;5012214;28;20178;-61
2022/08/29 07:33:47;;;;;;;8.10;4.90;;;;;;;29.69;nan;-24637.22;5012285;28;20171;-60
2022/08/29 07:36:12;;;;;;;9.95;4.95;;;;;;;29.33;nan;-24627.53;5012145;28;20211;-59
2022/08/29 07:38:38;;;;;;;9.15;5.30;;;;;;;28.98;nan;-24618.09;5012248;28;20283;-59
2022/08/29 07:41:10;;;;;;;7.07;5.10;;;;;;;28.59;nan;-24607.44;5012210;28;20234;-59
2022/08/29 07:43:36;;;;;;;8.05;5.15;;;;;;;29.08;nan;-24620.69;5012178;28;20175;-59
2022/08/29 07:46:08;;;;;;;7.68;5.22;;;;;;;29.18;nan;-24623.44;5012256;28;20178;-59
2022/08/29 07:48:34;;;;;;;7.65;5.13;;;;;;;29.41;nan;-24629.72;5012778;28;20175;-59
2022/08/29 07:51:00;;;;;;;9.85;5.45;;;;;;;29.42;nan;-24630.13;5012555;28;20180;-60
2022/08/29 07:53:25;;;;;;;9.63;5.18;;;;;;;29.50;nan;-24632.19;5012126;28;20662;-60
2022/08/29 07:55:51;;;;;;;8.23;5.15;;;;;;;29.93;nan;-24643.63;5012028;28;20199;-60
2022/08/29 07:58:16;;;;;;;8.13;5.38;;;;;;;30.17;nan;-24650.19;5012146;28;20167;-60
2022/08/29 08:00:41;;;;;;;9.77;4.85;;;;;;;29.78;nan;-24639.69;5011677;28;20171;-60
2022/08/29 08:03:07;;;;;;;8.77;4.70;;;;;;;29.96;nan;-24644.47;5011623;28;20641;-60
2022/08/29 08:05:33;;;;;;;9.40;5.03;;;;;;;29.99;nan;-24645.28;5011626;28;20274;-60
2022/08/29 08:07:58;;;;;;;11.27;5.70;;;;;;;30.28;nan;-24653.19;5011827;28;20177;-60
2022/08/29 08:10:24;;;;;;;9.18;5.15;;;;;;;30.08;nan;-24647.72;5011994;28;20198;-60
2022/08/29 08:12:50;;;;;;;12.07;6.20;;;;;;;30.42;nan;-24657.00;5011869;28;20515;-60
2022/08/29 08:15:16;;;;;;;7.25;4.85;;;;;;;30.57;nan;-24661.09;5011247;28;20257;-60
2022/08/29 08:17:42;;;;;;;7.10;4.60;;;;;;;30.18;nan;-24650.59;5012159;28;20163;-61
2022/08/29 08:20:09;;;;;;;8.65;5.20;;;;;;;30.07;nan;-24647.44;5012006;28;20215;-60
2022/08/29 08:22:36;;;;;;;6.93;4.88;;;;;;;30.35;nan;-24655.09;5011672;28;20175;-60
2022/08/29 08:25:03;;;;;;;7.97;5.53;;;;;;;30.49;nan;-24658.91;5011502;28;20234;-60
2022/08/29 08:27:29;;;;;;;7.93;5.03;;;;;;;30.22;nan;-24651.69;5011681;28;20630;-60
2022/08/29 08:29:55;;;;;;;10.60;5.50;;;;;;;30.33;nan;-24654.41;5011331;28;20172;-60
2022/08/29 08:32:20;;;;;;;9.65;5.30;;;;;;;30.23;nan;-24651.81;5011873;28;20225;-61
2022/08/29 08:34:45;;;;;;;7.75;4.80;;;;;;;30.23;nan;-24651.81;5011639;28;20176;-61
2022/08/29 08:37:11;;;;;;;8.15;5.45;;;;;;;30.19;nan;-24650.72;5011539;28;20550;-60
2022/08/29 08:39:37;;;;;;;11.70;5.65;;;;;;;30.50;nan;-24659.19;5011582;28;20171;-61
2022/08/29 08:42:13;;;;;;;13.45;5.55;;;;;;;30.44;nan;-24657.53;5011607;28;20253;-60
2022/08/29 08:44:58;;;;;;;8.77;4.85;;;;;;;30.72;nan;-24665.03;5011959;28;20259;-60
2022/08/29 08:47:30;;;;;;;10.32;5.25;;;;;;;31.08;nan;-24674.84;5011963;28;20570;-60
2022/08/29 08:50:05;;;;;;;8.80;5.10;;;;;;;30.77;nan;-24666.41;5015456;28;20180;-60
2022/08/29 08:52:41;;;;;;;7.07;5.13;;;;;;;31.32;nan;-24681.09;4995131;28;20178;-60
2022/08/29 08:55:19;;;;;;;7.97;5.60;;;;;;;31.16;nan;-24676.75;5009501;28;20203;-60
2022/08/29 08:57:58;;;;;;;11.88;5.78;;;;;;;31.46;nan;-24684.91;5015177;28;20245;-60
2022/08/29 09:00:25;;;;;;;9.25;5.47;;;;;;;31.25;nan;-24679.31;5014696;28;20669;-60
2022/08/29 09:03:11;;;;;;;8.55;5.03;;;;;;;31.63;nan;-24689.41;5014690;28;20199;-59
2022/08/29 09:05:42;;;;;;;8.18;4.93;;;;;;;31.07;nan;-24674.44;5014664;28;20175;-60
2022/08/29 09:08:13;;;;;;;8.00;5.25;;;;;;;31.29;nan;-24680.28;5014687;28;20222;-60
2022/08/29 09:10:47;;;;;;;6.97;5.22;;;;;;;31.30;nan;-24680.56;5014384;28;20179;-60
2022/08/29 09:13:41;;;;;;;8.23;4.90;;;;;;;31.57;nan;-24687.91;5014373;28;20646;-59
2022/08/29 09:16:30;;;;;;;6.13;4.65;;;;;;;31.31;nan;-24680.97;5014549;28;20187;-59
2022/08/29 09:19:02;;;;;;;6.85;4.85;;;;;;;31.57;nan;-24687.91;5013662;28;20319;-59
2022/08/29 09:21:28;;;;;;;7.68;4.95;;;;;;;32.13;nan;-24702.97;5014412;28;20173;-60
2022/08/29 09:23:58;;;;;;;8.95;4.13;;;;;;;32.11;nan;-24702.28;5007501;28;20646;-60
2022/08/29 09:26:25;;;;;;;7.80;4.60;;;;;;;32.01;nan;-24699.84;5014816;28;20610;-59
2022/08/29 09:28:52;;;;;;;8.10;5.20;;;;;;;32.20;nan;-24704.88;5014846;28;20160;-60
2022/08/29 09:31:26;;;;;;;7.10;5.00;;;;;;;32.50;nan;-24712.88;5014494;28;20262;-60
2022/08/29 09:33:57;;;;;;;8.13;4.90;;;;;;;32.85;nan;-24722.25;5014167;28;20198;-59
2022/08/29 09:36:46;;;;;;;8.10;4.70;;;;;;;33.04;nan;-24727.41;5014300;28;20191;-59
2022/08/29 09:39:27;;;;;;;7.63;4.80;;;;;;;32.85;nan;-24722.25;5014283;28;20258;-59
2022/08/29 09:42:18;;;;;;;7.63;4.93;;;;;;;33.14;nan;-24730.09;5014464;28;20171;-59
2022/08/29 09:44:53;;;;;;;8.48;5.22;;;;;;;32.87;nan;-24722.78;5013797;28;20198;-59
2022/08/29 09:47:22;;;;;;;7.97;5.10;;;;;;;32.90;nan;-24723.59;5014533;28;20262;-58
2022/08/29 09:50:07;;;;;;;7.60;4.85;;;;;;;32.92;nan;-24724.16;5014147;28;20250;-59
2022/08/29 09:52:35;;;;;;;8.32;5.35;;;;;;;32.90;nan;-24723.59;5014306;28;20233;-58
2022/08/29 09:55:21;;;;;;;6.10;4.38;;;;;;;33.15;nan;-24730.38;5014062;28;20183;-59
2022/08/29 09:57:54;;;;;;;8.43;5.10;;;;;;;33.37;nan;-24736.19;5014032;28;20164;-59
2022/08/29 10:00:25;;;;;;;7.65;4.75;;;;;;;33.08;nan;-24728.34;5013513;28;20612;-59
2022/08/29 10:02:53;;;;;;;8.35;4.65;;;;;;;33.53;nan;-24740.53;4996174;28;20641;-59
2022/08/29 10:05:35;;;;;;;7.85;4.72;;;;;;;33.24;nan;-24732.81;5013893;28;20265;-59
2022/08/29 10:08:03;;;;;;;7.68;5.35;;;;;;;33.41;nan;-24737.28;5003675;28;20188;-60
2022/08/29 10:10:33;;;;;;;11.13;5.18;;;;;;;33.73;nan;-24745.81;4993802;28;20289;-60
2022/08/29 10:13:01;;;;;;;8.07;5.45;;;;;;;33.41;nan;-24737.16;4994014;28;20505;-61
2022/08/29 10:15:41;;;;;;;6.65;4.68;;;;;;;33.25;nan;-24732.94;4993921;28;20204;-59
2022/08/29 10:18:26;;;;;;;7.00;4.85;;;;;;;33.57;nan;-24741.47;4993588;28;20175;-59
2022/08/29 10:21:11;;;;;;;7.03;4.93;;;;;;;33.71;nan;-24745.41;4993560;28;20572;-59
2022/08/29 10:23:53;;;;;;;10.73;4.43;;;;;;;33.51;nan;-24740.00;4976318;28;20180;-59
2022/08/29 10:26:36;;;;;;;8.20;4.85;;;;;;;33.19;nan;-24731.47;4993361;28;20184;-60
2022/08/29 10:29:20;;;;;;;9.80;4.72;;;;;;;33.16;nan;-24730.66;4993534;28;20643;-61
2022/08/29 10:31:59;;;;;;;7.07;5.03;;;;;;;33.16;nan;-24730.66;4993327;28;20270;-59
2022/08/29 10:34:40;;;;;;;6.45;4.82;;;;;;;33.39;nan;-24736.75;4993578;28;20706;-60
2022/08/29 10:37:32;;;;;;;7.25;5.18;;;;;;;33.71;nan;-24745.28;4993272;28;20210;-59
2022/08/29 10:40:08;;;;;;;6.65;4.65;;;;;;;33.85;nan;-24749.06;4993471;28;20186;-60
2022/08/29 10:42:37;;;;;;;6.25;4.35;;;;;;;33.99;nan;-24752.72;4993527;28;20168;-59
2022/08/29 10:45:13;;;;;;;6.47;4.63;;;;;;;34.20;nan;-24758.25;4993255;28;20231;-60
2022/08/29 10:48:04;;;;;;;6.05;4.22;;;;;;;34.25;nan;-24759.63;4993208;28;20639;-60
2022/08/29 10:50:38;;;;;;;8.55;4.50;;;;;;;34.38;nan;-24763.13;4992722;28;20226;-59
2022/08/29 10:53:15;;;;;;;8.35;4.97;;;;;;;34.42;nan;-24764.22;4992960;28;20184;-59
2022/08/29 10:55:52;;;;;;;9.05;4.50;;;;;;;34.51;nan;-24766.63;4992665;28;20625;-59
2022/08/29 10:58:36;;;;;;;10.70;5.10;;;;;;;34.26;nan;-24759.88;4993103;28;20218;-59
2022/08/29 11:01:08;;;;;;;7.30;4.88;;;;;;;33.84;nan;-24748.66;4993280;28;20172;-61
2022/08/29 11:04:03;;;;;;;7.13;4.90;;;;;;;33.78;nan;-24747.16;4993109;28;20251;-61
2022/08/29 11:06:47;;;;;;;7.70;4.53;;;;;;;33.48;nan;-24739.19;4981363;28;20188;-61
2022/08/29 11:09:22;;;;;;;8.02;4.88;;;;;;;33.66;nan;-24744.06;4992749;28;20291;-59
2022/08/29 11:12:02;;;;;;;7.35;5.07;;;;;;;33.77;nan;-24746.75;4992359;28;20160;-61
2022/08/29 11:14:36;;;;;;;10.30;4.82;;;;;;;34.01;nan;-24753.41;4992464;28;20535;-60
2022/08/29 11:17:04;;;;;;;7.38;4.85;;;;;;;34.16;nan;-24757.31;4992685;28;20208;-61
2022/08/29 11:19:40;;;;;;;7.90;4.90;;;;;;;34.29;nan;-24760.69;4992561;28;20235;-61
2022/08/29 11:22:23;;;;;;;7.82;5.22;;;;;;;34.54;nan;-24767.59;4992579;28;20180;-60
2022/08/29 11:25:04;;;;;;;7.70;5.07;;;;;;;34.67;nan;-24770.84;4992373;28;20211;-61
2022/08/29 11:27:50;;;;;;;7.95;5.35;;;;;;;34.82;nan;-24775.00;4992505;28;20172;-60
2022/08/29 11:30:21;;;;;;;9.27;5.70;;;;;;;34.22;nan;-24758.81;4992113;28;20241;-61
2022/08/29 11:32:56;;;;;;;9.20;5.32;;;;;;;34.35;nan;-24762.47;4992477;28;20156;-60
2022/08/29 11:35:44;;;;;;;8.77;5.53;;;;;;;34.67;nan;-24770.97;4991806;28;20211;-58
2022/08/29 11:38:09;;;;;;;10.85;6.38;;;;;;;34.72;nan;-24772.31;4992306;28;20180;-59
2022/08/29 11:40:56;;;;;;;8.07;5.50;;;;;;;34.67;nan;-24770.84;4992084;28;20655;-60
2022/08/29 11:43:27;;;;;;;8.25;5.22;;;;;;;34.82;nan;-24775.00;4991949;28;20674;-60
2022/08/29 11:46:00;;;;;;;8.30;5.47;;;;;;;34.89;nan;-24776.91;4992233;28;20255;-60
2022/08/29 11:48:45;;;;;;;7.28;5.18;;;;;;;34.59;nan;-24768.94;4992195;28;20275;-59
2022/08/29 11:51:30;;;;;;;8.43;5.28;;;;;;;34.75;nan;-24773.00;4992449;28;20183;-60